Time;durP1;ratioP1;P1;durP2;ratioP2;P2;SDS_P1;SDS_P2;PMS_P1;PMS_P2;Temp;Humidity;BMP_temperature;BMP_pressure;BME280_temperature;BME280_humidity;BME280_pressure;Samples;Min_cycle;Max_cycle;Signal;HPM_P1;HPM_P2
2023/04/12 00:00:51;;;;;;;;;;;;;;;18.17;50.89;100604.09;2080047;28;19933;-55
2023/04/12 00:01:53;;;;;;;;;;;;;;;18.17;50.86;100597.88;2077577;28;19936;-54
2023/04/12 00:02:58;;;;;;;;;;;;;;;18.17;50.99;100587.69;2072181;28;19964;-54
2023/04/12 00:04:04;;;;;;;;;;;;;;;18.17;50.83;100598.63;2072029;28;19925;-54
2023/04/12 00:05:08;;;;;;;;;;;;;;;18.16;50.80;100580.69;2062530;28;20020;-54
2023/04/12 00:06:12;;;;;;;;;;;;;;;18.16;51.06;100580.69;2063583;28;19929;-54
2023/04/12 00:07:17;;;;;;;;;;;;;;;18.16;50.92;100586.16;2071743;28;19929;-56
2023/04/12 00:08:23;;;;;;;;;;;;;;;18.16;50.84;100577.94;2071483;28;19929;-52
2023/04/12 00:09:29;;;;;;;;;;;;;;;18.15;51.05;100576.41;2071653;28;19972;-53
2023/04/12 00:10:32;;;;;;;;;;;;;;;18.16;50.81;100577.16;2071855;28;19929;-56
2023/04/12 00:11:35;;;;;;;;;;;;;;;18.15;50.93;100573.69;2077982;28;19926;-53
2023/04/12 00:12:37;;;;;;;;;;;;;;;18.15;50.84;100570.94;2071093;28;19936;-53
2023/04/12 00:13:39;;;;;;;;;;;;;;;18.15;50.86;100572.88;2071565;28;19933;-53
2023/04/12 00:14:41;;;;;;;;;;;;;;;18.15;50.83;100564.69;2071316;28;20059;-55
2023/04/12 00:15:44;;;;;;;;;;;;;;;18.15;51.04;100570.94;2071330;28;19987;-53
2023/04/12 00:16:45;;;;;;;;;;;;;;;18.15;51.08;100570.94;2072008;28;19979;-53
2023/04/12 00:17:48;;;;;;;;;;;;;;;18.14;50.95;100566.63;2071303;28;19929;-54
2023/04/12 00:18:50;;;;;;;;;;;;;;;18.14;50.94;100561.16;2071368;28;20302;-54
2023/04/12 00:19:53;;;;;;;;;;;;;;;18.15;50.88;100556.50;2071233;28;19929;-53
2023/04/12 00:20:55;;;;;;;;;;;;;;;18.14;50.85;100557.69;2071406;28;19930;-54
2023/04/12 00:21:57;;;;;;;;;;;;;;;18.14;51.04;100546.75;2071698;28;19937;-58
2023/04/12 00:22:59;;;;;;;;;;;;;;;18.13;50.90;100543.22;2070050;28;19934;-55
2023/04/12 00:24:02;;;;;;;;;;;;;;;18.13;50.94;100545.97;2071027;28;20339;-55
2023/04/12 00:25:04;;;;;;;;;;;;;;;18.13;51.12;100545.16;2071338;28;19929;-55
2023/04/12 00:26:08;;;;;;;;;;;;;;;18.13;50.71;100554.16;2069675;28;19934;-53
2023/04/12 00:27:10;;;;;;;;;;;;;;;18.13;50.82;100543.22;2061350;28;20408;-54
2023/04/12 00:28:14;;;;;;;;;;;;;;;18.13;50.88;100543.22;2059681;28;19968;-53
2023/04/12 00:29:17;;;;;;;;;;;;;;;18.11;50.90;100542.84;2067895;28;20316;-53
2023/04/12 00:30:19;;;;;;;;;;;;;;;18.12;50.79;100536.22;2072644;28;19925;-54
2023/04/12 00:31:21;;;;;;;;;;;;;;;18.12;51.02;100536.22;2072892;28;19929;-54
2023/04/12 00:32:24;;;;;;;;;;;;;;;18.12;51.02;100536.22;2063921;28;20033;-54
2023/04/12 00:33:26;;;;;;;;;;;;;;;18.12;50.96;100529.97;2064128;28;19930;-53
2023/04/12 00:34:28;;;;;;;;;;;;;;;18.12;50.88;100530.75;2072931;28;19933;-52
2023/04/12 00:35:30;;;;;;;;;;;;;;;18.11;51.12;100526.44;2065676;28;20053;-52
2023/04/12 00:36:33;;;;;;;;;;;;;;;18.11;51.07;100529.19;2073090;28;19941;-54
2023/04/12 00:37:35;;;;;;;;;;;;;;;18.12;51.11;100519.81;2072710;28;20308;-54
2023/04/12 00:38:38;;;;;;;;;;;;;;;18.12;50.88;100521.78;2072876;28;19936;-53
2023/04/12 00:39:39;;;;;;;;;;;;;;;18.11;50.98;100512.78;2072655;28;19979;-54
2023/04/12 00:40:42;;;;;;;;;;;;;;;18.11;50.93;100509.28;2071893;28;20020;-54
2023/04/12 00:41:45;;;;;;;;;;;;;;;18.12;51.08;100521.78;2073238;28;19936;-54
2023/04/12 00:42:48;;;;;;;;;;;;;;;18.10;51.01;100516.72;2070568;28;19934;-54
2023/04/12 00:43:50;;;;;;;;;;;;;;;18.11;50.79;100512.78;2070371;28;19929;-54
2023/04/12 00:44:52;;;;;;;;;;;;;;;18.10;51.03;100508.50;2072380;28;19968;-54
2023/04/12 00:45:56;;;;;;;;;;;;;;;18.10;51.01;100500.31;2072766;28;19933;-54
2023/04/12 00:47:01;;;;;;;;;;;;;;;18.10;51.06;100502.25;2071873;28;19934;-55
2023/04/12 00:48:04;;;;;;;;;;;;;;;18.10;51.03;100494.06;2073941;28;19937;-52
2023/04/12 00:49:07;;;;;;;;;;;;;;;18.10;51.07;100500.31;2072961;28;20349;-53
2023/04/12 00:50:09;;;;;;;;;;;;;;;18.10;50.86;100494.84;2071609;28;19936;-52
2023/04/12 00:51:12;;;;;;;;;;;;;;;18.09;51.03;100487.84;2071897;28;20652;-54
2023/04/12 00:52:16;;;;;;;;;;;;;;;18.09;51.16;100487.84;2072726;28;19933;-54
2023/04/12 00:53:18;;;;;;;;;;;;;;;18.09;50.95;100487.84;2071046;28;19977;-52
2023/04/12 00:54:21;;;;;;;;;;;;;;;18.09;51.04;100487.84;2072183;28;20016;-53
2023/04/12 00:55:23;;;;;;;;;;;;;;;18.09;50.95;100485.09;2072947;28;19932;-54
2023/04/12 00:56:27;;;;;;;;;;;;;;;18.08;51.10;100480.81;2072719;28;19930;-54
2023/04/12 00:57:33;;;;;;;;;;;;;;;18.09;51.05;100481.59;2071890;28;19930;-54
2023/04/12 00:58:36;;;;;;;;;;;;;;;18.09;50.92;100479.63;2072644;28;20304;-53
2023/04/12 00:59:37;;;;;;;;;;;;;;;18.08;51.10;100478.06;2061834;28;19940;-53
2023/04/12 01:00:40;;;;;;;;;;;;;;;18.08;50.96;100469.09;2063796;28;19930;-52
2023/04/12 01:01:44;;;;;;;;;;;;;;;18.08;50.88;100469.88;2072047;28;19929;-53
2023/04/12 01:02:49;;;;;;;;;;;;;;;18.07;50.94;100462.84;2071923;28;19975;-54
2023/04/12 01:03:52;;;;;;;;;;;;;;;18.08;51.16;100458.94;2072513;28;19987;-53
2023/04/12 01:04:57;;;;;;;;;;;;;;;18.07;51.18;100451.16;2069587;28;19929;-53
2023/04/12 01:06:08;;;;;;;;;;;;;;;18.06;51.13;100455.81;2071176;28;19929;-55
2023/04/12 01:07:18;;;;;;;;;;;;;;;18.06;50.82;100450.34;2065607;28;19977;-53
2023/04/12 01:08:26;;;;;;;;;;;;;;;18.07;50.86;100451.94;2065427;28;19933;-53
2023/04/12 01:09:34;;;;;;;;;;;;;;;18.07;51.12;100443.75;2074722;28;20012;-55
2023/04/12 01:10:40;;;;;;;;;;;;;;;18.07;50.99;100445.69;2075476;28;20622;-54
2023/04/12 01:11:45;;;;;;;;;;;;;;;18.06;50.92;100428.50;2075351;28;19926;-52
2023/04/12 01:12:51;;;;;;;;;;;;;;;18.07;50.94;100435.53;2071189;28;21819;-55
2023/04/12 01:13:57;;;;;;;;;;;;;;;18.06;51.07;100433.22;2072305;28;20595;-54
2023/04/12 01:15:02;;;;;;;;;;;;;;;18.07;50.98;100429.28;2057389;28;19930;-54
2023/04/12 01:16:07;;;;;;;;;;;;;;;18.06;51.02;100428.50;2056270;28;19937;-53
2023/04/12 01:17:13;;;;;;;;;;;;;;;18.05;51.00;100426.97;2065218;28;19993;-53
2023/04/12 01:18:18;;;;;;;;;;;;;;;18.06;50.96;100430.47;2059977;28;19973;-54
2023/04/12 01:19:33;;;;;;;;;;;;;;;18.05;50.96;100429.69;2064706;28;20416;-54
2023/04/12 01:20:43;;;;;;;;;;;;;;;18.06;51.03;100427.75;2064015;28;19937;-59
2023/04/12 01:22:01;;;;;;;;;;;;;;;18.05;50.86;100416.03;2064845;28;19975;-53
2023/04/12 01:23:08;;;;;;;;;;;;;;;18.05;50.99;100416.03;2068768;28;19979;-54
2023/04/12 01:24:21;;;;;;;;;;;;;;;18.05;51.02;100416.03;2060027;28;19930;-53
2023/04/12 01:25:38;;;;;;;;;;;;;;;18.05;50.81;100402.38;2068804;28;20009;-54
2023/04/12 01:26:41;;;;;;;;;;;;;;;18.04;50.95;100406.28;2078831;28;19999;-53
2023/04/12 01:27:46;;;;;;;;;;;;;;;18.04;51.09;100392.63;2075875;28;19968;-53
2023/04/12 01:28:51;;;;;;;;;;;;;;;18.04;51.05;100398.09;2076988;28;19937;-53
2023/04/12 01:29:56;;;;;;;;;;;;;;;18.04;51.15;100398.09;2072365;28;20404;-54
2023/04/12 01:31:00;;;;;;;;;;;;;;;18.03;50.86;100396.53;2061487;28;19930;-53
2023/04/12 01:32:03;;;;;;;;;;;;;;;18.03;51.29;100391.06;2067972;28;20028;-54
2023/04/12 01:33:09;;;;;;;;;;;;;;;18.03;50.96;100377.41;2072988;28;20461;-53
2023/04/12 01:34:13;;;;;;;;;;;;;;;18.03;51.17;100385.59;2073237;28;20400;-54
2023/04/12 01:35:16;;;;;;;;;;;;;;;18.04;50.84;100375.47;2075171;28;19929;-53
2023/04/12 01:36:21;;;;;;;;;;;;;;;18.03;50.88;100379.38;2073013;28;19926;-54
2023/04/12 01:37:23;;;;;;;;;;;;;;;18.04;50.93;100370.00;2066486;28;19930;-54
2023/04/12 01:38:26;;;;;;;;;;;;;;;18.03;50.97;100366.47;2062887;28;19932;-54
2023/04/12 01:39:29;;;;;;;;;;;;;;;18.01;50.92;100366.13;2059784;28;19929;-54
2023/04/12 01:40:32;;;;;;;;;;;;;;;18.02;51.00;100364.94;2064218;28;20000;-53
2023/04/12 01:41:38;;;;;;;;;;;;;;;18.02;50.86;100362.19;2071449;28;19936;-53
2023/04/12 01:42:40;;;;;;;;;;;;;;;18.02;51.05;100351.28;2070608;28;20636;-52
2023/04/12 01:43:44;;;;;;;;;;;;;;;18.02;51.05;100354.00;2078143;28;19959;-54
2023/04/12 01:44:46;;;;;;;;;;;;;;;18.02;50.89;100353.22;2079834;28;19974;-55
2023/04/12 01:45:48;;;;;;;;;;;;;;;18.02;50.93;100353.22;2077505;28;19925;-53
2023/04/12 01:46:50;;;;;;;;;;;;;;;18.02;51.01;100351.28;2080413;28;20424;-52
2023/04/12 01:47:53;;;;;;;;;;;;;;;18.02;50.99;100347.75;2071878;28;19972;-54
2023/04/12 01:48:55;;;;;;;;;;;;;;;18.01;51.24;100349.72;2066869;28;19968;-54
2023/04/12 01:50:01;;;;;;;;;;;;;;;18.01;51.10;100352.47;2075552;28;19933;-54
2023/04/12 01:51:05;;;;;;;;;;;;;;;18.02;51.16;100345.03;2073821;28;19971;-54
2023/04/12 01:52:11;;;;;;;;;;;;;;;18.01;50.88;100343.47;2079394;28;19974;-53
2023/04/12 01:53:17;;;;;;;;;;;;;;;18.01;50.98;100329.81;2074031;28;19929;-53
2023/04/12 01:54:22;;;;;;;;;;;;;;;18.00;50.92;100331.78;2079190;28;19935;-54
2023/04/12 01:55:29;;;;;;;;;;;;;;;18.01;50.94;100332.56;2076394;28;19982;-52
2023/04/12 01:56:34;;;;;;;;;;;;;;;18.01;50.98;100327.88;2075988;28;20201;-53
2023/04/12 01:57:39;;;;;;;;;;;;;;;18.01;51.15;100332.56;2078579;28;20036;-54
2023/04/12 01:58:43;;;;;;;;;;;;;;;18.00;51.05;100318.09;2079877;28;19937;-52
2023/04/12 01:59:47;;;;;;;;;;;;;;;18.00;50.87;100312.66;2079791;28;19929;-51
2023/04/12 02:00:50;;;;;;;;;;;;;;;18.00;50.90;100315.38;2077010;28;19962;-54
2023/04/12 02:01:52;;;;;;;;;;;;;;;17.99;51.13;100305.66;2078397;28;19951;-53
2023/04/12 02:02:56;;;;;;;;;;;;;;;18.00;50.89;100304.44;2073388;28;19925;-52
2023/04/12 02:03:59;;;;;;;;;;;;;;;18.00;51.08;100293.53;2072523;28;19936;-53
2023/04/12 02:05:04;;;;;;;;;;;;;;;17.99;51.15;100286.53;2078923;28;19944;-54
2023/04/12 02:06:06;;;;;;;;;;;;;;;18.00;50.88;100299.00;2079427;28;20567;-53
2023/04/12 02:07:10;;;;;;;;;;;;;;;18.01;51.11;100288.84;2075612;28;19929;-52
2023/04/12 02:08:12;;;;;;;;;;;;;;;17.99;51.00;100280.28;2073917;28;19934;-52
2023/04/12 02:09:14;;;;;;;;;;;;;;;18.00;51.11;100282.59;2080896;28;19936;-54
2023/04/12 02:10:26;;;;;;;;;;;;;;;17.98;51.05;100279.50;2072116;28;19930;-53
2023/04/12 02:11:29;;;;;;;;;;;;;;;17.99;50.96;100293.94;2076841;28;19983;-52
2023/04/12 02:12:30;;;;;;;;;;;;;;;17.98;51.11;100284.97;2079187;28;19983;-53
2023/04/12 02:13:33;;;;;;;;;;;;;;;17.99;51.15;100296.66;2075498;28;19991;-56
2023/04/12 02:14:35;;;;;;;;;;;;;;;17.98;51.15;100298.63;2072299;28;19930;-52
2023/04/12 02:15:40;;;;;;;;;;;;;;;17.98;50.88;100297.84;2072571;28;20417;-53
2023/04/12 02:16:43;;;;;;;;;;;;;;;17.97;51.03;100288.88;2073410;28;19975;-52
2023/04/12 02:17:46;;;;;;;;;;;;;;;17.96;50.97;100292.78;2075623;28;20388;-54
2023/04/12 02:18:47;;;;;;;;;;;;;;;17.97;51.23;100288.88;2072213;28;19932;-52
2023/04/12 02:19:50;;;;;;;;;;;;;;;17.97;50.98;100290.81;2072441;28;19926;-54
2023/04/12 02:20:53;;;;;;;;;;;;;;;17.96;51.10;100279.13;2071387;28;19925;-54
2023/04/12 02:21:55;;;;;;;;;;;;;;;17.96;50.84;100270.16;2071492;28;19925;-54
2023/04/12 02:22:59;;;;;;;;;;;;;;;17.96;50.95;100270.94;2074601;28;19936;-54
2023/04/12 02:24:01;;;;;;;;;;;;;;;17.96;50.94;100264.69;2079154;28;19936;-54
2023/04/12 02:25:05;;;;;;;;;;;;;;;17.96;51.13;100267.44;2072225;28;19934;-53
2023/04/12 02:26:07;;;;;;;;;;;;;;;17.96;51.00;100262.75;2072371;28;20712;-53
2023/04/12 02:27:10;;;;;;;;;;;;;;;17.96;50.83;100249.09;2076978;28;19926;-54
2023/04/12 02:28:13;;;;;;;;;;;;;;;17.95;51.12;100252.97;2065425;28;19938;-50
2023/04/12 02:29:16;;;;;;;;;;;;;;;17.95;50.84;100242.06;2063603;28;20305;-53
2023/04/12 02:30:21;;;;;;;;;;;;;;;17.95;50.99;100247.53;2063847;28;19972;-54
2023/04/12 02:31:29;;;;;;;;;;;;;;;17.96;50.95;100242.84;2065113;28;19989;-53
2023/04/12 02:32:43;;;;;;;;;;;;;;;17.96;51.04;100238.16;2074986;28;20080;-54
2023/04/12 02:33:51;;;;;;;;;;;;;;;17.95;51.05;100227.66;2071298;28;19933;-53
2023/04/12 02:34:56;;;;;;;;;;;;;;;17.95;51.02;100236.59;2071362;28;20404;-53
2023/04/12 02:35:58;;;;;;;;;;;;;;;17.95;50.96;100225.66;2063089;28;20404;-54
2023/04/12 02:37:01;;;;;;;;;;;;;;;17.95;51.07;100224.91;2063632;28;19941;-54
2023/04/12 02:38:02;;;;;;;;;;;;;;;17.95;50.83;100222.19;2072815;28;20028;-54
2023/04/12 02:39:06;;;;;;;;;;;;;;;17.95;50.80;100225.66;2075130;28;19929;-51
2023/04/12 02:40:10;;;;;;;;;;;;;;;17.95;50.95;100224.91;2078562;28;20025;-53
2023/04/12 02:41:16;;;;;;;;;;;;;;;17.93;50.91;100212.41;2064543;28;19930;-54
2023/04/12 02:42:19;;;;;;;;;;;;;;;17.95;51.06;100211.25;2068952;28;20432;-53
2023/04/12 02:43:23;;;;;;;;;;;;;;;17.93;50.93;100198.75;2063145;28;20001;-53
2023/04/12 02:44:32;;;;;;;;;;;;;;;17.93;50.86;100196.03;2056412;28;20019;-54
2023/04/12 02:45:47;;;;;;;;;;;;;;;17.94;51.12;100194.09;2064384;28;19937;-52
2023/04/12 02:46:50;;;;;;;;;;;;;;;17.94;50.93;100196.81;2074558;28;20296;-55
2023/04/12 02:47:53;;;;;;;;;;;;;;;17.93;50.98;100185.09;2064443;28;19933;-52
2023/04/12 02:48:59;;;;;;;;;;;;;;;17.93;51.04;100184.34;2052135;28;19930;-54
2023/04/12 02:50:12;;;;;;;;;;;;;;;17.92;50.88;100177.31;2057937;28;20413;-52
2023/04/12 02:51:23;;;;;;;;;;;;;;;17.93;51.17;100178.88;2063436;28;19980;-52
2023/04/12 02:52:28;;;;;;;;;;;;;;;17.93;50.86;100173.44;2062653;28;20400;-52
2023/04/12 02:53:39;;;;;;;;;;;;;;;17.92;50.95;100167.19;2065394;28;19965;-55
2023/04/12 02:54:52;;;;;;;;;;;;;;;17.93;51.18;100176.16;2056216;28;19930;-54
2023/04/12 02:55:56;;;;;;;;;;;;;;;17.92;51.07;100174.59;2063418;28;20022;-55
2023/04/12 02:57:01;;;;;;;;;;;;;;;17.92;50.98;100172.63;2062796;28;20563;-54
2023/04/12 02:58:11;;;;;;;;;;;;;;;17.92;50.93;100166.41;2072971;28;19938;-52
2023/04/12 02:59:21;;;;;;;;;;;;;;;17.92;51.07;100158.97;2063427;28;19985;-52
2023/04/12 03:00:41;;;;;;;;;;;;;;;17.92;51.41;100154.72;2063234;28;19936;-54
2023/04/12 03:01:45;;;;;;;;;;;;;;;17.91;50.94;100151.19;2062570;28;20000;-54
2023/04/12 03:02:58;;;;;;;;;;;;;;;17.92;51.13;100163.66;2064913;28;20025;-53
2023/04/12 03:04:02;;;;;;;;;;;;;;;17.90;50.98;100147.69;2063180;28;19933;-54
2023/04/12 03:05:23;;;;;;;;;;;;;;;17.92;51.09;100149.25;2070535;28;19931;-53
2023/04/12 03:06:25;;;;;;;;;;;;;;;17.92;50.77;100149.25;2062827;28;19929;-52
2023/04/12 03:07:29;;;;;;;;;;;;;;;17.91;50.90;100132.06;2055164;28;19960;-53
2023/04/12 03:08:31;;;;;;;;;;;;;;;17.90;50.95;100134.03;2067091;28;19930;-53
2023/04/12 03:09:33;;;;;;;;;;;;;;;17.90;51.12;100130.53;2075442;28;20360;-53
2023/04/12 03:10:36;;;;;;;;;;;;;;;17.91;51.08;100134.81;2062924;28;20024;-54
2023/04/12 03:11:40;;;;;;;;;;;;;;;17.90;51.05;100136.00;2059592;28;19977;-55
2023/04/12 03:12:42;;;;;;;;;;;;;;;17.89;50.90;100127.03;2063766;28;19929;-53
2023/04/12 03:13:51;;;;;;;;;;;;;;;17.89;50.89;100135.22;2063494;28;19930;-53
2023/04/12 03:14:53;;;;;;;;;;;;;;;17.89;51.14;100135.22;2054969;28;19930;-53
2023/04/12 03:15:59;;;;;;;;;;;;;;;17.90;51.07;100125.06;2063685;28;19933;-53
2023/04/12 03:17:07;;;;;;;;;;;;;;;17.89;50.91;100129.75;2065401;28;20393;-55
2023/04/12 03:18:13;;;;;;;;;;;;;;;17.89;51.05;100124.28;2068107;28;20013;-53
2023/04/12 03:19:18;;;;;;;;;;;;;;;17.89;50.90;100124.28;2071710;28;20455;-53
2023/04/12 03:20:27;;;;;;;;;;;;;;;17.89;50.89;100123.50;2064282;28;20451;-54
2023/04/12 03:21:37;;;;;;;;;;;;;;;17.89;51.10;100118.03;2062340;28;19930;-55
2023/04/12 03:22:40;;;;;;;;;;;;;;;17.89;50.87;100118.03;2055445;28;20022;-53
2023/04/12 03:23:43;;;;;;;;;;;;;;;17.88;51.06;100111.84;2065991;28;19933;-53
2023/04/12 03:24:53;;;;;;;;;;;;;;;17.89;51.05;100116.09;2066994;28;19926;-53
2023/04/12 03:25:56;;;;;;;;;;;;;;;17.89;50.98;100123.50;2062750;28;19952;-49
2023/04/12 03:27:07;;;;;;;;;;;;;;;17.88;50.90;100111.03;2065454;28;19929;-52
2023/04/12 03:28:10;;;;;;;;;;;;;;;17.88;50.96;100106.38;2064107;28;20417;-53
2023/04/12 03:29:25;;;;;;;;;;;;;;;17.87;51.11;100104.81;2060073;28;19926;-54
2023/04/12 03:30:28;;;;;;;;;;;;;;;17.89;51.10;100101.66;2059213;28;20410;-58
2023/04/12 03:31:32;;;;;;;;;;;;;;;17.88;50.91;100105.59;2057932;28;19980;-53
2023/04/12 03:32:39;;;;;;;;;;;;;;;17.87;50.96;100104.00;2061059;28;20020;-53
2023/04/12 03:33:44;;;;;;;;;;;;;;;17.87;51.17;100104.00;2055533;28;19976;-53
2023/04/12 03:35:13;;;;;;;;;;;;;;;17.87;51.10;100093.09;2064677;28;19934;-53
2023/04/12 03:36:17;;;;;;;;;;;;;;;17.87;51.03;100090.34;2059947;28;19973;-53
2023/04/12 03:37:24;;;;;;;;;;;;;;;17.87;50.80;100087.63;2055401;28;20496;-53
2023/04/12 03:38:30;;;;;;;;;;;;;;;17.88;50.89;100078.28;2055610;28;19930;-55
2023/04/12 03:39:33;;;;;;;;;;;;;;;17.86;50.82;100086.09;2055157;28;20024;-53
2023/04/12 03:40:35;;;;;;;;;;;;;;;17.86;51.08;100078.69;2070175;28;19969;-53
2023/04/12 03:41:38;;;;;;;;;;;;;;;17.86;50.89;100081.41;2061772;28;20024;-53
2023/04/12 03:42:39;;;;;;;;;;;;;;;17.85;51.01;100074.38;2067341;28;20064;-52
2023/04/12 03:43:46;;;;;;;;;;;;;;;17.86;51.00;100069.69;2060508;28;20035;-52
2023/04/12 03:44:51;;;;;;;;;;;;;;;17.86;50.95;100066.97;2055632;28;20306;-52
2023/04/12 03:45:56;;;;;;;;;;;;;;;17.85;51.07;100055.28;2055359;28;19986;-55
2023/04/12 03:46:59;;;;;;;;;;;;;;;17.86;50.83;100053.31;2055333;28;19929;-52
2023/04/12 03:48:09;;;;;;;;;;;;;;;17.86;51.01;100058.78;2062879;28;19940;-54
2023/04/12 03:49:17;;;;;;;;;;;;;;;17.85;50.85;100051.78;2065200;28;19937;-53
2023/04/12 03:50:22;;;;;;;;;;;;;;;17.85;50.86;100044.34;2074940;28;19964;-54
2023/04/12 03:51:29;;;;;;;;;;;;;;;17.86;50.86;100036.94;2075782;28;20309;-53
2023/04/12 03:52:37;;;;;;;;;;;;;;;17.85;50.76;100041.63;2063074;28;19977;-54
2023/04/12 03:53:40;;;;;;;;;;;;;;;17.85;50.84;100041.63;2063506;28;20329;-51
2023/04/12 03:54:47;;;;;;;;;;;;;;;17.85;51.03;100036.16;2071032;28;19925;-53
2023/04/12 03:56:00;;;;;;;;;;;;;;;17.85;50.77;100029.94;2062996;28;20413;-53
2023/04/12 03:57:06;;;;;;;;;;;;;;;17.84;50.77;100028.38;2055010;28;20425;-52
2023/04/12 03:58:15;;;;;;;;;;;;;;;17.85;51.15;100027.19;2067347;28;19929;-54
2023/04/12 03:59:19;;;;;;;;;;;;;;;17.84;51.04;100028.38;2063038;28;20019;-53
2023/04/12 04:00:23;;;;;;;;;;;;;;;17.84;50.91;100031.88;2063302;28;19930;-53
2023/04/12 04:01:37;;;;;;;;;;;;;;;17.84;51.01;100040.06;2062554;28;19934;-52
2023/04/12 04:02:39;;;;;;;;;;;;;;;17.84;51.13;100028.38;2065740;28;19957;-54
2023/04/12 04:03:44;;;;;;;;;;;;;;;17.83;50.96;100022.16;2071013;28;20036;-54
2023/04/12 04:04:55;;;;;;;;;;;;;;;17.84;51.01;100022.91;2072347;28;19930;-53
2023/04/12 04:06:02;;;;;;;;;;;;;;;17.83;51.21;100010.44;2064650;28;19929;-53
2023/04/12 04:07:06;;;;;;;;;;;;;;;17.83;50.89;100013.19;2065315;28;19941;-54
2023/04/12 04:08:18;;;;;;;;;;;;;;;17.83;50.79;100008.50;2070303;28;21235;-51
2023/04/12 04:09:30;;;;;;;;;;;;;;;17.84;51.05;100011.97;2064500;28;20048;-55
2023/04/12 04:10:32;;;;;;;;;;;;;;;17.83;50.85;100011.22;2064708;28;19930;-54
2023/04/12 04:11:36;;;;;;;;;;;;;;;17.83;50.97;100011.22;2077208;28;20420;-54
2023/04/12 04:12:41;;;;;;;;;;;;;;;17.82;51.08;100017.84;2076790;28;20458;-51
2023/04/12 04:13:46;;;;;;;;;;;;;;;17.82;51.00;100004.19;2078467;28;20023;-55
2023/04/12 04:14:53;;;;;;;;;;;;;;;17.83;51.22;100005.00;2072022;28;20008;-54
2023/04/12 04:16:08;;;;;;;;;;;;;;;17.82;51.10;100006.19;2058309;28;19934;-54
2023/04/12 04:17:11;;;;;;;;;;;;;;;17.82;50.89;100008.91;2057235;28;19961;-53
2023/04/12 04:18:14;;;;;;;;;;;;;;;17.83;51.06;100010.44;2068973;28;20708;-52
2023/04/12 04:19:17;;;;;;;;;;;;;;;17.81;51.04;100008.13;2079416;28;19969;-54
2023/04/12 04:20:22;;;;;;;;;;;;;;;17.81;51.06;100002.66;2064461;28;20355;-52
2023/04/12 04:21:29;;;;;;;;;;;;;;;17.81;51.22;100002.66;2056997;28;20089;-53
2023/04/12 04:22:32;;;;;;;;;;;;;;;17.82;50.75;99998.00;2065006;28;19984;-53
2023/04/12 04:23:38;;;;;;;;;;;;;;;17.81;50.90;100005.41;2057907;28;19985;-54
2023/04/12 04:24:41;;;;;;;;;;;;;;;17.81;51.19;99997.22;2056449;28;19950;-54
2023/04/12 04:25:45;;;;;;;;;;;;;;;17.81;51.07;99996.41;2057936;28;20329;-54
2023/04/12 04:26:49;;;;;;;;;;;;;;;17.80;51.10;99998.41;2056954;28;20262;-53
2023/04/12 04:27:58;;;;;;;;;;;;;;;17.80;50.78;100000.34;2061259;28;19937;-52
2023/04/12 04:29:03;;;;;;;;;;;;;;;17.81;50.93;99990.97;2056884;28;20046;-54
2023/04/12 04:30:11;;;;;;;;;;;;;;;17.81;50.86;99999.16;2070501;28;19929;-52
2023/04/12 04:31:17;;;;;;;;;;;;;;;17.81;50.89;99990.97;2069144;28;19929;-55
2023/04/12 04:32:24;;;;;;;;;;;;;;;17.80;51.16;100003.06;2070895;28;20500;-54
2023/04/12 04:33:30;;;;;;;;;;;;;;;17.81;50.88;99996.41;2064719;28;20392;-53
2023/04/12 04:34:37;;;;;;;;;;;;;;;17.80;50.99;99994.88;2065035;28;19934;-53
2023/04/12 04:35:51;;;;;;;;;;;;;;;17.80;51.10;99992.16;2064451;28;20032;-51
2023/04/12 04:37:01;;;;;;;;;;;;;;;17.80;51.14;99994.88;2073390;28;19972;-54
2023/04/12 04:38:03;;;;;;;;;;;;;;;17.80;50.98;100005.81;2064266;28;19988;-54
2023/04/12 04:39:06;;;;;;;;;;;;;;;17.80;50.87;100003.06;2064738;28;20419;-52
2023/04/12 04:40:13;;;;;;;;;;;;;;;17.79;50.79;99993.34;2073373;28;20371;-49
2023/04/12 04:41:16;;;;;;;;;;;;;;;17.78;50.77;99997.25;2065166;28;20142;-52
2023/04/12 04:42:25;;;;;;;;;;;;;;;17.79;50.95;99996.06;2053975;28;19937;-54
2023/04/12 04:43:38;;;;;;;;;;;;;;;17.78;51.04;99991.78;2064156;28;19929;-53
2023/04/12 04:44:41;;;;;;;;;;;;;;;17.78;51.12;99994.50;2072398;28;19938;-51
2023/04/12 04:45:47;;;;;;;;;;;;;;;17.78;51.06;99987.09;2064038;28;19930;-55
2023/04/12 04:46:52;;;;;;;;;;;;;;;17.78;51.02;99987.09;2065152;28;20504;-53
2023/04/12 04:47:54;;;;;;;;;;;;;;;17.78;51.03;99978.91;2063435;28;20501;-52
2023/04/12 04:48:57;;;;;;;;;;;;;;;17.78;51.13;99976.19;2065799;28;20021;-52
2023/04/12 04:49:59;;;;;;;;;;;;;;;17.78;50.81;99975.41;2073157;28;19936;-60
2023/04/12 04:51:03;;;;;;;;;;;;;;;17.79;50.89;99976.97;2071400;28;19933;-54
2023/04/12 04:52:07;;;;;;;;;;;;;;;17.78;51.18;99964.47;2064099;28;19948;-54
2023/04/12 04:53:10;;;;;;;;;;;;;;;17.78;50.87;99967.22;2064664;28;19930;-53
2023/04/12 04:54:12;;;;;;;;;;;;;;;17.77;51.16;99963.69;2077610;28;19929;-54
2023/04/12 04:55:17;;;;;;;;;;;;;;;17.77;51.12;99969.16;2072556;28;19934;-53
2023/04/12 04:56:22;;;;;;;;;;;;;;;17.78;50.91;99969.94;2065465;28;19926;-53
2023/04/12 04:57:26;;;;;;;;;;;;;;;17.77;51.25;99958.22;2066075;28;19930;-53
2023/04/12 04:58:30;;;;;;;;;;;;;;;17.78;51.18;99961.75;2068594;28;19933;-54
2023/04/12 04:59:34;;;;;;;;;;;;;;;17.78;50.91;99953.56;2056498;28;20337;-54
2023/04/12 05:00:47;;;;;;;;;;;;;;;17.77;51.04;99952.03;2057425;28;19933;-54
2023/04/12 05:01:52;;;;;;;;;;;;;;;17.77;51.00;99954.75;2062906;28;19930;-53
2023/04/12 05:02:54;;;;;;;;;;;;;;;17.77;50.91;99946.56;2064676;28;19930;-53
2023/04/12 05:03:59;;;;;;;;;;;;;;;17.77;50.95;99949.28;2064782;28;19925;-54
2023/04/12 05:05:03;;;;;;;;;;;;;;;17.77;50.88;99941.09;2064880;28;19926;-55
2023/04/12 05:06:09;;;;;;;;;;;;;;;17.77;50.87;99946.56;2064022;28;19930;-53
2023/04/12 05:07:13;;;;;;;;;;;;;;;17.77;50.83;99932.91;2058886;28;20024;-50
2023/04/12 05:08:18;;;;;;;;;;;;;;;17.77;50.99;99932.91;2056243;28;19934;-54
2023/04/12 05:09:22;;;;;;;;;;;;;;;17.77;51.08;99921.97;2064009;28;19948;-49
2023/04/12 05:10:30;;;;;;;;;;;;;;;17.76;51.22;99928.59;2063963;28;19964;-55
2023/04/12 05:11:36;;;;;;;;;;;;;;;17.76;50.86;99920.41;2056816;28;19934;-52
2023/04/12 05:12:43;;;;;;;;;;;;;;;17.76;50.98;99923.16;2057367;28;20013;-52
2023/04/12 05:13:48;;;;;;;;;;;;;;;17.76;50.75;99928.59;2065571;28;19930;-54
2023/04/12 05:14:50;;;;;;;;;;;;;;;17.75;51.16;99932.53;2071879;28;20049;-52
2023/04/12 05:15:53;;;;;;;;;;;;;;;17.76;51.05;99923.16;2071840;28;19929;-54
2023/04/12 05:16:56;;;;;;;;;;;;;;;17.75;50.89;99919.66;2067845;28;20441;-51
2023/04/12 05:18:01;;;;;;;;;;;;;;;17.76;50.85;99923.16;2063854;28;19936;-53
2023/04/12 05:19:05;;;;;;;;;;;;;;;17.75;50.92;99919.66;2064080;28;19998;-52
2023/04/12 05:20:09;;;;;;;;;;;;;;;17.75;50.88;99927.84;2070282;28;19929;-53
2023/04/12 05:21:14;;;;;;;;;;;;;;;17.75;50.76;99910.69;2073261;28;20458;-52
2023/04/12 05:22:19;;;;;;;;;;;;;;;17.76;51.13;99912.22;2069708;28;19929;-51
2023/04/12 05:23:22;;;;;;;;;;;;;;;17.75;50.94;99906.00;2074622;28;19936;-55
2023/04/12 05:24:25;;;;;;;;;;;;;;;17.75;51.06;99905.22;2062341;28;20045;-51
2023/04/12 05:25:31;;;;;;;;;;;;;;;17.76;50.92;99909.50;2053521;28;19930;-53
2023/04/12 05:26:40;;;;;;;;;;;;;;;17.74;51.04;99896.25;2056736;28;19930;-53
2023/04/12 05:27:47;;;;;;;;;;;;;;;17.74;50.94;99907.19;2056328;28;19934;-51
2023/04/12 05:28:53;;;;;;;;;;;;;;;17.74;51.01;99903.69;2056500;28;19969;-51
2023/04/12 05:29:55;;;;;;;;;;;;;;;17.75;50.84;99907.97;2054928;28;20413;-52
2023/04/12 05:31:01;;;;;;;;;;;;;;;17.74;50.83;99909.16;2062249;28;19926;-55
2023/04/12 05:32:09;;;;;;;;;;;;;;;17.75;51.22;99902.50;2064190;28;19973;-54
2023/04/12 05:33:12;;;;;;;;;;;;;;;17.74;51.00;99904.44;2055098;28;19997;-54
2023/04/12 05:34:18;;;;;;;;;;;;;;;17.74;51.01;99904.44;2056727;28;19930;-53
2023/04/12 05:35:27;;;;;;;;;;;;;;;17.73;50.87;99897.44;2048870;28;20473;-54